Flight Track Log - Related Links

Times and Time Zones

All times are in EDT time to prevent confusion due to time zone crossing. See the GJS3636 flight status page for this flight to view local times or setup timezone preferences in your user account.

Time Position Orientation Groundspeed Altitude Reporting Facility
EDT Latitude Longitude Course Direction KTS MPH feet Rate Location/Type
Sat 11:58:22 AM 39.3167 -94.7167 84° East 151 174 1,600  Level Kansas City TRACON
Sat 11:59:04 AM 39.3500 -94.7000 21° North 169 194 2,900 2,222 Climbing Kansas City TRACON
Sat 12:00:10 PM 39.4000 -94.6500 38° Northeast 229 264 5,600 2,429 Climbing Kansas City TRACON
Sat 12:01:00 PM 39.3517 -94.1937 80° East  Level FlightAware Approximate
Sat 12:01:10 PM 39.4000 -94.5500 90° East 274 315 8,000  Level Kansas City TRACON
Sat 12:02:00 PM 39.3703 -94.0504 82° East  Level FlightAware Approximate
Sat 12:02:14 PM 39.3817 -94.4642 105° East 285 328 10,000  Level Kansas City Center
Sat 12:03:00 PM 39.3854 -93.9064 84° East  Level FlightAware Approximate
Sat 12:03:16 PM 39.4261 -94.3672 59° Northeast 290 334 12,300  Level Kansas City Center
Sat 12:04:18 PM 39.4950 -94.3158 30° Northeast 305 351 13,800 1,306 Climbing Kansas City Center
Sat 12:05:20 PM 39.5919 -94.2697 20° North 357 411 15,000 1,016 Climbing Kansas City Center
Sat 12:06:22 PM 39.6703 -94.1786 42° Northeast 394 453 15,900 1,306 Climbing Kansas City Center
Sat 12:07:24 PM 39.7628 -94.0664 43° Northeast 408 470 17,700 1,742 Climbing Kansas City Center
Sat 12:08:26 PM 39.8489 -93.9539 45° Northeast 422 486 19,500 1,694 Climbing Kansas City Center
Sat 12:09:28 PM 39.9367 -93.8536 41° Northeast 421 484 21,200 1,645 Climbing Kansas City Center
Sat 12:10:30 PM 40.0231 -93.7472 43° Northeast 427 491 22,900 1,597 Climbing Kansas City Center
Sat 12:11:32 PM 40.0433 -93.5789 81° East 470 541 24,500 1,452 Climbing Kansas City Center
Sat 12:12:34 PM 40.0603 -93.4078 83° East 476 548 25,900 1,258 Climbing Kansas City Center
Sat 12:13:36 PM 40.0797 -93.1994 83° East 487 560 27,100 1,065 Climbing Kansas City Center
Sat 12:14:38 PM 40.0961 -93.0214 83° East 498 573 28,100 968 Climbing Kansas City Center
Sat 12:15:40 PM 40.1108 -92.8450 84° East 506 582 29,100 1,016 Climbing Kansas City Center
Sat 12:16:42 PM 40.1303 -92.6364 83° East 515 593 30,200 1,016 Climbing Kansas City Center
Sat 12:17:44 PM 40.1764 -92.4753 69° East 495 570 31,200 1,016 Climbing Kansas City Center
Sat 12:18:46 PM 40.2400 -92.3033 64° Northeast 491 565 32,300 871 Climbing Kansas City Center
Sat 12:19:48 PM 40.2972 -92.1436 65° Northeast 491 565 33,000 339 Climbing Kansas City Center
Sat 12:20:50 PM 40.3553 -91.9783 65° Northeast 499 574 33,000  Level Kansas City Center
Sat 12:21:22 PM 40.3925 -91.8758 64° Northeast 514 592 33,000  Level Chicago Center
Sat 12:21:52 PM 40.4289 -91.7717 65° Northeast 521 600 33,000  Level Kansas City Center
Sat 12:22:54 PM 40.4883 -91.5936 66° East 534 615 33,000  Level Kansas City Center
Sat 12:23:56 PM 40.5483 -91.4169 66° East 535 616 33,000  Level Kansas City Center
Sat 12:24:58 PM 40.6125 -91.2303 66° East 535 616 33,000  Level Kansas City Center
Sat 12:25:31 PM 40.6503 -91.1236 65° Northeast 533 613 33,000 -126 Level Chicago Center
Sat 12:26:33 PM 40.7122 -90.9456 65° Northeast 534 615 32,800 -823 Descending Chicago Center
Sat 12:27:35 PM 40.7731 -90.7614 66° East 545 627 31,300 -1,452 Descending Chicago Center
Sat 12:28:37 PM 40.8361 -90.5756 66° East 551 634 29,800 -1,452 Descending Chicago Center
Sat 12:29:39 PM 40.8972 -90.3944 66° East 542 624 28,300 -1,548 Descending Chicago Center
Sat 12:30:41 PM 40.9614 -90.2025 66° East 523 602 26,600 -1,452 Descending Chicago Center
Sat 12:31:43 PM 41.0131 -90.0467 66° East 504 580 25,300 -1,210 Descending Chicago Center
Sat 12:32:45 PM 41.0794 -89.8433 67° East 497 572 24,100 -629 Descending Chicago Center
Sat 12:33:47 PM 41.1328 -89.6781 67° East 487 560 24,000 -629 Descending Chicago Center
Sat 12:34:49 PM 41.1911 -89.5147 65° Northeast 489 563 22,800 -1,790 Descending Chicago Center
Sat 12:35:51 PM 41.2553 -89.3558 62° Northeast 491 565 20,300 -2,371 Descending Chicago Center
Sat 12:36:53 PM 41.3158 -89.2053 62° Northeast 471 542 17,900 -2,323 Descending Chicago Center
Sat 12:37:55 PM 41.3706 -89.0650 62° Northeast 430 495 15,500 -2,304 Descending Chicago Center
Sat 12:38:58 PM 41.4250 -88.9306 62° Northeast 420 483 13,100 -2,112 Descending Chicago Center
Sat 12:40:00 PM 41.4867 -88.7744 62° Northeast 402 463 11,100 -1,016 Descending Chicago Center
Sat 12:41:02 PM 41.5386 -88.6417 62° Northeast 402 463 11,000 -48 Descending Chicago Center
Sat 12:42:04 PM 41.6014 -88.5136 57° Northeast 409 471 11,000  Level Chicago Center
Sat 12:43:06 PM 41.6778 -88.3983 48° Northeast 412 474 11,000  Level Chicago Center
Sat 12:44:08 PM 41.7514 -88.2811 50° Northeast 411 473 11,000  Level Chicago Center
Sat 12:45:10 PM 41.8250 -88.1642 50° Northeast 410 472 11,000 -290 Level Chicago Center
Sat 12:46:12 PM 41.8792 -87.9981 66° East 406 467 10,400 -484 Descending Chicago Center
Sat 12:47:14 PM 41.8847 -87.8628 87° East 360 414 10,000 -677 Descending Chicago Center
Sat 12:48:16 PM 41.8833 -87.7494 91° East 310 357 9,000 -774 Descending Chicago Center
Sat 12:49:18 PM 41.8822 -87.6400 91° East 297 342 8,400 -484 Descending Chicago Center
Sat 12:50:20 PM 41.8836 -87.5336 89° East 288 331 8,000 -677 Descending Chicago Center
Sat 12:51:22 PM 41.8925 -87.4319 83° East 278 320 7,000 -484 Descending Chicago Center
Sat 12:52:24 PM 41.9183 -87.3411 69° East 239 275 7,000  Level Chicago Center
Sat 12:53:27 PM 41.9686 -87.3728 335° Northwest 221 254 7,000  Level Chicago Center
Sat 12:54:29 PM 41.9833 -87.4442 286° West 201 231 7,000 -484 Level Chicago Center
Sat 12:55:31 PM 41.9825 -87.5061 269° West 171 197 6,000 -823 Descending Chicago Center
Sat 12:56:33 PM 41.9825 -87.5692 270° West 168 193 5,300 -629 Descending Chicago Center
Sat 12:57:35 PM 41.9844 -87.6478 272° West 175 201 4,700 -1,016 Descending Chicago Center
Sat 12:58:37 PM 41.9836 -87.7158 269° West 181 208 3,200 -1,161 Descending Chicago Center
Sat 12:59:39 PM 41.9842 -87.7842 271° West 183 211 2,300 -774 Descending Chicago Center
Sat 01:00:41 PM 41.9833 -87.8447 269° West 177 204 1,600 -677 Descending Chicago Center

Login

Don't have an account? Register now (free) for customized features, flight alerts, and more!